Time;durP1;ratioP1;P1;durP2;ratioP2;P2;SDS_P1;SDS_P2;PMS_P1;PMS_P2;Temp;Humidity;BMP_temperature;BMP_pressure;BME280_temperature;BME280_humidity;BME280_pressure;Samples;Min_cycle;Max_cycle;Signal;HPM_P1;HPM_P2
2021/11/06 00:02:14;;;;;;;16.13;5.85;;;20.00;99.90;;;;;;5092753;28;20066;-61
2021/11/06 00:04:42;;;;;;;12.50;6.47;;;19.90;99.90;;;;;;5084255;28;20039;-62
2021/11/06 00:07:09;;;;;;;11.98;5.53;;;19.90;99.90;;;;;;5094078;28;20047;-60
2021/11/06 00:09:37;;;;;;;16.48;5.18;;;19.90;99.90;;;;;;5092626;28;20071;-62
2021/11/06 00:12:06;;;;;;;11.88;5.32;;;19.90;99.90;;;;;;5094255;28;20043;-61
2021/11/06 00:14:34;;;;;;;18.23;5.35;;;19.80;99.90;;;;;;5091398;28;20036;-61
2021/11/06 00:17:02;;;;;;;16.42;5.53;;;19.90;99.90;;;;;;5094041;28;20043;-64
2021/11/06 00:19:29;;;;;;;14.68;4.28;;;19.90;99.90;;;;;;5094000;28;20109;-61
2021/11/06 00:21:57;;;;;;;13.50;4.65;;;19.90;99.90;;;;;;5111938;28;20036;-60
2021/11/06 00:24:25;;;;;;;16.42;5.40;;;19.90;99.90;;;;;;5088572;28;20055;-60
2021/11/06 00:26:52;;;;;;;12.80;4.57;;;19.90;99.90;;;;;;5105195;28;20466;-61
2021/11/06 00:29:20;;;;;;;10.93;5.07;;;19.90;99.90;;;;;;5072020;28;20097;-61
2021/11/06 00:31:49;;;;;;;11.70;4.75;;;19.90;99.90;;;;;;5081866;28;20043;-60
2021/11/06 00:34:17;;;;;;;15.20;4.72;;;19.90;99.90;;;;;;5092929;28;20028;-63
2021/11/06 00:36:44;;;;;;;23.48;4.32;;;19.90;99.90;;;;;;5076528;28;20146;-61
2021/11/06 00:39:12;;;;;;;20.95;5.30;;;19.90;99.90;;;;;;5078376;28;20040;-61
2021/11/06 00:41:40;;;;;;;12.93;5.72;;;19.90;99.90;;;;;;5093894;28;20092;-60
2021/11/06 00:44:07;;;;;;;13.57;4.60;;;19.90;99.90;;;;;;5086387;28;20043;-62
2021/11/06 00:46:35;;;;;;;13.07;4.80;;;19.80;99.90;;;;;;5092896;28;20047;-61
2021/11/06 00:49:03;;;;;;;9.93;4.30;;;19.70;99.90;;;;;;5072185;28;20139;-61
2021/11/06 00:51:31;;;;;;;19.33;6.40;;;19.60;99.90;;;;;;5093520;28;20043;-60
2021/11/06 00:53:58;;;;;;;15.77;5.35;;;19.50;99.90;;;;;;5076212;28;20043;-61
2021/11/06 00:56:26;;;;;;;12.07;5.55;;;19.50;99.90;;;;;;5094033;28;20052;-61
2021/11/06 00:58:54;;;;;;;17.67;5.22;;;19.50;99.90;;;;;;5097718;28;20379;-61
2021/11/06 01:01:21;;;;;;;19.50;5.93;;;19.50;99.90;;;;;;5081606;28;20444;-60
2021/11/06 01:03:49;;;;;;;14.75;6.18;;;19.60;99.90;;;;;;5092394;28;20036;-61
2021/11/06 01:06:17;;;;;;;13.18;5.45;;;19.50;99.90;;;;;;5109729;28;20090;-61
2021/11/06 01:08:45;;;;;;;24.42;6.88;;;19.50;99.90;;;;;;5103623;28;20047;-61
2021/11/06 01:11:12;;;;;;;19.02;7.18;;;19.50;99.90;;;;;;5101235;28;20121;-61
2021/11/06 01:13:40;;;;;;;19.75;6.00;;;19.60;99.90;;;;;;5108270;28;20040;-60
2021/11/06 01:16:08;;;;;;;17.90;6.20;;;19.60;99.90;;;;;;5111566;28;20040;-60
2021/11/06 01:18:36;;;;;;;20.75;7.38;;;19.70;99.90;;;;;;5100942;28;20051;-61
2021/11/06 01:21:04;;;;;;;18.52;7.35;;;19.70;99.90;;;;;;5093096;28;20031;-61
2021/11/06 01:23:33;;;;;;;16.23;7.85;;;19.80;99.90;;;;;;5055790;28;20143;-62
2021/11/06 01:26:02;;;;;;;16.65;7.07;;;19.80;99.90;;;;;;5076622;28;20446;-60
2021/11/06 01:28:30;;;;;;;22.60;7.78;;;19.90;99.90;;;;;;5092090;28;20132;-61
2021/11/06 01:30:58;;;;;;;19.88;7.57;;;19.80;99.90;;;;;;5098568;28;20042;-61
2021/11/06 01:33:26;;;;;;;18.70;7.70;;;19.90;99.90;;;;;;5072819;28;20524;-61
2021/11/06 01:35:54;;;;;;;26.73;11.43;;;19.90;99.90;;;;;;5088427;28;20064;-61
2021/11/06 01:38:21;;;;;;;28.20;10.52;;;19.80;99.90;;;;;;5116295;28;20074;-61
2021/11/06 01:40:49;;;;;;;40.65;11.10;;;19.80;99.90;;;;;;5098508;28;20494;-61
2021/11/06 01:43:17;;;;;;;30.45;9.60;;;19.60;99.90;;;;;;5098536;28;20044;-61
2021/11/06 01:45:45;;;;;;;22.98;8.43;;;19.60;99.90;;;;;;5098774;28;20101;-60
2021/11/06 01:48:12;;;;;;;18.38;8.13;;;19.60;99.90;;;;;;5082012;28;20394;-61
2021/11/06 01:50:40;;;;;;;19.45;8.52;;;19.60;99.90;;;;;;5098684;28;20097;-60
2021/11/06 01:53:07;;;;;;;33.10;9.35;;;19.60;99.90;;;;;;5081461;28;20035;-60
2021/11/06 01:55:35;;;;;;;22.02;8.57;;;19.50;99.90;;;;;;5081364;28;20048;-61
2021/11/06 01:58:03;;;;;;;23.25;10.13;;;19.40;99.90;;;;;;5098794;28;20436;-61
2021/11/06 02:00:31;;;;;;;25.95;10.57;;;19.50;99.90;;;;;;5098626;28;20098;-60
2021/11/06 02:02:58;;;;;;;28.17;12.23;;;19.50;99.90;;;;;;5081569;28;20142;-60
2021/11/06 02:05:26;;;;;;;26.00;8.63;;;19.50;99.90;;;;;;5098475;28;20473;-60
2021/11/06 02:07:54;;;;;;;22.13;8.95;;;19.50;99.90;;;;;;5098411;28;20512;-61
2021/11/06 02:10:21;;;;;;;30.45;9.13;;;19.50;99.90;;;;;;5116406;28;20039;-61
2021/11/06 02:12:49;;;;;;;28.92;9.98;;;19.50;99.90;;;;;;5081808;28;20078;-61
2021/11/06 02:15:19;;;;;;;19.95;8.23;;;19.50;99.90;;;;;;5098459;28;20039;-60
2021/11/06 02:17:49;;;;;;;18.08;8.20;;;19.60;99.90;;;;;;5081766;28;20051;-60
2021/11/06 02:20:17;;;;;;;26.33;8.02;;;19.60;99.90;;;;;;5098162;28;20036;-60
2021/11/06 02:22:45;;;;;;;22.23;8.75;;;19.70;99.90;;;;;;5116088;28;20458;-61
2021/11/06 02:25:14;;;;;;;20.55;9.02;;;19.70;99.90;;;;;;5116111;28;20470;-61
2021/11/06 02:27:42;;;;;;;27.08;10.02;;;19.80;99.90;;;;;;5098015;28;20044;-61
2021/11/06 02:30:13;;;;;;;20.45;7.68;;;19.80;99.90;;;;;;5080959;28;20558;-61
2021/11/06 02:32:40;;;;;;;18.05;8.07;;;19.80;99.90;;;;;;5081194;28;20143;-60
2021/11/06 02:35:09;;;;;;;19.65;8.55;;;19.90;99.90;;;;;;5097723;28;20043;-61
2021/11/06 02:37:37;;;;;;;17.10;8.02;;;19.90;99.90;;;;;;5081164;28;20051;-61
2021/11/06 02:40:06;;;;;;;31.45;8.70;;;19.90;99.90;;;;;;5097789;28;20047;-61
2021/11/06 02:42:34;;;;;;;19.80;8.32;;;19.80;99.90;;;;;;5097558;28;20497;-60
2021/11/06 02:45:06;;;;;;;21.90;8.95;;;19.80;99.90;;;;;;5097626;28;20131;-60
2021/11/06 02:47:33;;;;;;;23.55;10.63;;;19.80;99.90;;;;;;5115611;28;20039;-61
2021/11/06 02:50:01;;;;;;;35.60;11.25;;;19.80;99.90;;;;;;5115455;28;20036;-61
2021/11/06 02:52:29;;;;;;;17.98;7.80;;;19.90;99.90;;;;;;5097669;28;20445;-60
2021/11/06 02:54:56;;;;;;;17.38;8.70;;;19.90;99.90;;;;;;5115567;28;20100;-60
2021/11/06 02:57:24;;;;;;;21.52;8.52;;;19.90;99.90;;;;;;5080882;28;20105;-60
2021/11/06 02:59:54;;;;;;;22.08;7.75;;;19.90;99.90;;;;;;5097528;28;20493;-60
2021/11/06 03:02:21;;;;;;;19.77;8.40;;;19.90;99.90;;;;;;5080512;28;20485;-61
2021/11/06 03:04:49;;;;;;;16.90;6.97;;;19.90;99.90;;;;;;5097340;28;20036;-60
2021/11/06 03:07:17;;;;;;;22.27;10.13;;;20.00;99.90;;;;;;5097056;28;20047;-61
2021/11/06 03:09:44;;;;;;;19.52;8.75;;;20.00;99.90;;;;;;5080473;28;20050;-60
2021/11/06 03:12:15;;;;;;;29.05;9.40;;;20.00;99.90;;;;;;5079988;28;20044;-61
2021/11/06 03:14:43;;;;;;;12.55;7.82;;;20.00;99.90;;;;;;5063609;28;20035;-61
2021/11/06 03:17:11;;;;;;;15.68;7.72;;;20.00;99.90;;;;;;5096901;28;20118;-62
2021/11/06 03:19:38;;;;;;;13.90;7.53;;;20.00;99.90;;;;;;5097231;28;20035;-60
2021/11/06 03:22:07;;;;;;;19.15;6.88;;;20.00;99.90;;;;;;5080011;28;20074;-60
2021/11/06 03:24:35;;;;;;;13.93;6.55;;;20.00;99.90;;;;;;5096957;28;20039;-61
2021/11/06 03:27:03;;;;;;;19.85;6.63;;;19.90;99.90;;;;;;5096855;28;20059;-61
2021/11/06 03:29:31;;;;;;;24.00;7.75;;;19.90;99.90;;;;;;5096754;28;20433;-61
2021/11/06 03:32:00;;;;;;;15.60;7.25;;;19.90;99.90;;;;;;5096785;28;20066;-61
2021/11/06 03:34:27;;;;;;;17.92;5.18;;;19.90;99.90;;;;;;5079830;28;20079;-61
2021/11/06 03:36:55;;;;;;;16.30;6.13;;;19.80;99.90;;;;;;5096858;28;20422;-60
2021/11/06 03:39:23;;;;;;;12.63;6.82;;;19.70;99.90;;;;;;5114749;28;20055;-60
2021/11/06 03:41:50;;;;;;;16.30;7.35;;;19.70;99.90;;;;;;5096770;28;20391;-60
2021/11/06 03:44:18;;;;;;;16.60;7.68;;;19.70;99.90;;;;;;5096420;28;20501;-61
2021/11/06 03:46:46;;;;;;;16.20;7.65;;;19.70;99.90;;;;;;5114572;28;20110;-60
2021/11/06 03:49:13;;;;;;;20.95;7.35;;;19.70;99.90;;;;;;5096677;28;20039;-61
2021/11/06 03:51:41;;;;;;;12.38;5.93;;;19.70;99.90;;;;;;5114575;28;20094;-60
2021/11/06 03:54:09;;;;;;;13.93;6.22;;;19.80;99.90;;;;;;5096467;28;20043;-61
2021/11/06 03:56:37;;;;;;;18.70;8.48;;;19.80;99.90;;;;;;5114349;28;20039;-61
2021/11/06 03:59:05;;;;;;;15.07;7.13;;;19.70;99.90;;;;;;5095898;28;20525;-61
2021/11/06 04:01:33;;;;;;;21.08;7.25;;;19.70;99.90;;;;;;5096568;28;20110;-61
2021/11/06 04:04:02;;;;;;;15.95;5.85;;;19.70;99.90;;;;;;5114144;28;20096;-61
2021/11/06 04:06:30;;;;;;;13.88;6.03;;;19.70;99.90;;;;;;5079306;28;20409;-61
2021/11/06 04:08:58;;;;;;;15.63;7.20;;;19.70;99.90;;;;;;5096305;28;20036;-61
2021/11/06 04:11:26;;;;;;;22.83;6.18;;;19.70;99.90;;;;;;5079307;28;20044;-61
2021/11/06 04:13:55;;;;;;;23.58;7.57;;;19.70;99.90;;;;;;5096404;28;20039;-61
2021/11/06 04:16:24;;;;;;;22.98;6.40;;;19.70;99.90;;;;;;5096042;28;20046;-61
2021/11/06 04:18:52;;;;;;;24.52;8.40;;;19.70;99.90;;;;;;5096336;28;20044;-60
2021/11/06 04:21:19;;;;;;;15.25;6.97;;;19.70;99.90;;;;;;5079196;28;20428;-60
2021/11/06 04:23:47;;;;;;;19.45;8.07;;;19.70;99.90;;;;;;5096117;28;20039;-60
2021/11/06 04:26:15;;;;;;;19.38;11.93;;;19.70;99.90;;;;;;5095991;28;20180;-60
2021/11/06 04:28:42;;;;;;;20.77;13.75;;;19.70;99.90;;;;;;5095840;28;20551;-60
2021/11/06 04:31:11;;;;;;;20.92;12.85;;;19.70;99.90;;;;;;5079145;28;20043;-60
2021/11/06 04:33:39;;;;;;;20.20;11.77;;;19.70;99.90;;;;;;5079164;28;20051;-61
2021/11/06 04:36:08;;;;;;;19.80;9.65;;;19.70;99.90;;;;;;5078828;28;20557;-61
2021/11/06 04:38:37;;;;;;;14.32;7.03;;;19.80;99.90;;;;;;5079120;28;20142;-61
2021/11/06 04:41:04;;;;;;;17.98;7.00;;;19.80;99.90;;;;;;5095791;28;20135;-61
2021/11/06 04:43:32;;;;;;;18.08;7.15;;;19.70;99.90;;;;;;5095820;28;20440;-60
2021/11/06 04:46:00;;;;;;;14.55;5.80;;;19.80;99.90;;;;;;5114092;28;20462;-60
2021/11/06 04:48:27;;;;;;;25.35;8.57;;;19.70;99.90;;;;;;5095771;28;20044;-60
2021/11/06 04:50:55;;;;;;;18.20;8.27;;;19.70;99.90;;;;;;5095905;28;20073;-60
2021/11/06 04:53:23;;;;;;;16.20;7.45;;;19.60;99.90;;;;;;5095626;28;20089;-61
2021/11/06 04:55:52;;;;;;;21.65;8.65;;;19.70;99.90;;;;;;5061957;28;20078;-61
2021/11/06 04:58:19;;;;;;;19.33;7.38;;;19.60;99.90;;;;;;5095632;28;20452;-60
2021/11/06 05:00:47;;;;;;;14.88;7.53;;;19.60;99.90;;;;;;5113765;28;20398;-60
2021/11/06 05:03:15;;;;;;;21.15;8.55;;;19.60;99.90;;;;;;5095458;28;20039;-61
2021/11/06 05:05:42;;;;;;;21.92;7.05;;;19.50;99.90;;;;;;5095758;28;20039;-61
2021/11/06 05:08:11;;;;;;;18.00;7.53;;;19.50;99.90;;;;;;5095465;28;20123;-61
2021/11/06 05:10:40;;;;;;;25.73;8.45;;;19.50;99.90;;;;;;5096456;28;20047;-61
2021/11/06 05:13:08;;;;;;;22.15;10.27;;;19.40;99.90;;;;;;5082371;28;20439;-61
2021/11/06 05:15:36;;;;;;;13.88;6.63;;;19.40;99.90;;;;;;5099533;28;20040;-61
2021/11/06 05:18:04;;;;;;;17.08;8.63;;;19.40;99.90;;;;;;5099430;28;20054;-60
2021/11/06 05:20:32;;;;;;;15.35;6.65;;;19.30;99.90;;;;;;5117150;28;20074;-61
2021/11/06 05:23:00;;;;;;;18.73;8.40;;;19.20;99.90;;;;;;5099222;28;20040;-61
2021/11/06 05:25:27;;;;;;;19.75;8.05;;;19.20;99.90;;;;;;5099091;28;20496;-61
2021/11/06 05:27:55;;;;;;;17.42;9.02;;;19.20;99.90;;;;;;5117004;28;20052;-60
2021/11/06 05:30:23;;;;;;;34.88;9.15;;;19.20;99.90;;;;;;5117089;28;20048;-62
2021/11/06 05:32:50;;;;;;;17.30;7.57;;;19.20;99.90;;;;;;5113117;28;20031;-61
2021/11/06 05:35:18;;;;;;;16.73;7.90;;;19.10;99.90;;;;;;5097436;28;20076;-61
2021/11/06 05:37:46;;;;;;;17.80;6.78;;;19.10;99.90;;;;;;5079989;28;20059;-61
2021/11/06 05:40:13;;;;;;;20.00;8.65;;;19.00;99.90;;;;;;5110175;28;20035;-61
2021/11/06 05:42:41;;;;;;;14.82;7.57;;;19.00;99.90;;;;;;5090050;28;20038;-61
2021/11/06 05:45:10;;;;;;;16.40;7.05;;;19.00;99.90;;;;;;5080333;28;20378;-61
2021/11/06 05:47:38;;;;;;;20.92;6.65;;;19.00;99.90;;;;;;5100980;28;20050;-61
2021/11/06 05:50:09;;;;;;;16.55;7.60;;;19.00;99.90;;;;;;5097230;28;20093;-61
2021/11/06 05:52:37;;;;;;;16.70;7.20;;;19.10;99.90;;;;;;5113337;28;20035;-61
2021/11/06 05:55:08;;;;;;;22.38;7.05;;;19.10;99.90;;;;;;5064830;28;20047;-61
2021/11/06 05:57:35;;;;;;;15.15;7.15;;;19.20;99.90;;;;;;5108541;28;20070;-61
2021/11/06 06:00:06;;;;;;;17.30;6.97;;;19.10;99.90;;;;;;5097909;28;20055;-61
2021/11/06 06:02:34;;;;;;;19.92;6.75;;;19.10;99.90;;;;;;5105638;28;20501;-62
2021/11/06 06:05:03;;;;;;;14.93;6.47;;;19.10;99.90;;;;;;5096976;28;20046;-61
2021/11/06 06:07:30;;;;;;;18.02;7.60;;;19.10;99.90;;;;;;5096316;28;20040;-61
2021/11/06 06:09:58;;;;;;;18.35;7.53;;;19.10;99.90;;;;;;5097224;28;20050;-60
2021/11/06 06:12:26;;;;;;;21.15;6.97;;;19.00;99.90;;;;;;5115704;28;20047;-60
2021/11/06 06:14:54;;;;;;;15.50;7.35;;;19.10;99.90;;;;;;5081405;28;20547;-60
2021/11/06 06:17:21;;;;;;;16.10;7.35;;;19.10;99.90;;;;;;5098090;28;20047;-61
2021/11/06 06:19:49;;;;;;;13.98;6.65;;;19.20;99.90;;;;;;5098319;28;20144;-61
2021/11/06 06:22:16;;;;;;;13.15;6.70;;;19.20;99.90;;;;;;5115918;28;20048;-61
2021/11/06 06:24:44;;;;;;;14.20;6.68;;;19.20;99.90;;;;;;5098220;28;20474;-60
2021/11/06 06:27:11;;;;;;;21.02;7.68;;;19.20;99.90;;;;;;5098035;28;20062;-61
2021/11/06 06:29:39;;;;;;;21.65;6.80;;;19.30;99.90;;;;;;5080792;28;20134;-61
2021/11/06 06:32:07;;;;;;;14.48;6.40;;;19.30;99.90;;;;;;5097791;28;20040;-61
2021/11/06 06:34:35;;;;;;;15.25;6.40;;;19.30;99.90;;;;;;5098071;28;20379;-60
2021/11/06 06:37:03;;;;;;;13.07;6.10;;;19.30;99.90;;;;;;5115980;28;20105;-61
2021/11/06 06:39:31;;;;;;;16.83;8.02;;;19.30;99.90;;;;;;5081340;28;20047;-60
2021/11/06 06:41:59;;;;;;;22.02;7.43;;;19.30;99.90;;;;;;5097624;28;20051;-60
2021/11/06 06:44:26;;;;;;;15.38;7.03;;;19.30;99.90;;;;;;5097390;28;20083;-60
2021/11/06 06:46:54;;;;;;;17.48;9.02;;;19.30;99.90;;;;;;5115617;28;20040;-60
2021/11/06 06:49:22;;;;;;;19.55;7.18;;;19.40;99.90;;;;;;5097719;28;20047;-60
2021/11/06 06:51:51;;;;;;;18.77;8.25;;;19.40;99.90;;;;;;5097673;28;20032;-60
2021/11/06 06:54:18;;;;;;;12.70;6.40;;;19.40;99.90;;;;;;5097632;28;20044;-60
2021/11/06 06:56:46;;;;;;;20.65;6.95;;;19.40;99.90;;;;;;5097638;28;20074;-60
2021/11/06 06:59:13;;;;;;;14.45;7.70;;;19.40;99.90;;;;;;5097004;28;20100;-61
2021/11/06 07:01:41;;;;;;;13.90;6.22;;;19.40;99.90;;;;;;5115670;28;20440;-60
2021/11/06 07:04:09;;;;;;;17.65;6.97;;;19.40;99.90;;;;;;5097303;28;20039;-61
2021/11/06 07:06:36;;;;;;;14.23;7.45;;;19.40;99.90;;;;;;5115475;28;20047;-61
2021/11/06 07:09:05;;;;;;;16.23;7.68;;;19.50;99.90;;;;;;5097156;28;20040;-60
2021/11/06 07:11:32;;;;;;;17.75;7.93;;;19.50;99.90;;;;;;5063807;28;20044;-60
2021/11/06 07:14:00;;;;;;;18.85;7.40;;;19.50;99.90;;;;;;5079980;28;20043;-60
2021/11/06 07:16:27;;;;;;;16.40;6.07;;;19.60;99.90;;;;;;5097452;28;20074;-60
2021/11/06 07:18:55;;;;;;;12.13;6.65;;;19.70;99.90;;;;;;5097277;28;20044;-60
2021/11/06 07:21:23;;;;;;;12.85;5.95;;;19.70;99.90;;;;;;5115081;28;20036;-61
2021/11/06 07:23:51;;;;;;;13.60;6.60;;;19.70;99.90;;;;;;5097144;28;20043;-60
2021/11/06 07:26:18;;;;;;;20.60;6.82;;;19.70;99.90;;;;;;5096976;28;20042;-61
2021/11/06 07:28:45;;;;;;;24.80;8.38;;;19.80;99.90;;;;;;5096359;28;20409;-60
2021/11/06 07:31:13;;;;;;;15.93;7.22;;;19.80;99.90;;;;;;5096598;28;20067;-61
2021/11/06 07:33:41;;;;;;;9.80;6.07;;;19.90;99.90;;;;;;5079381;28;20055;-60
2021/11/06 07:36:11;;;;;;;14.77;7.18;;;20.00;99.90;;;;;;5096685;28;20070;-60
2021/11/06 07:38:39;;;;;;;18.13;6.00;;;20.10;99.90;;;;;;5096787;28;20046;-60
2021/11/06 07:41:07;;;;;;;13.75;6.78;;;20.20;99.90;;;;;;5096701;28;20544;-60
2021/11/06 07:43:36;;;;;;;14.82;8.00;;;20.20;99.90;;;;;;5096530;28;20048;-60
2021/11/06 07:46:05;;;;;;;20.63;6.22;;;20.30;99.90;;;;;;5096459;28;20048;-61
2021/11/06 07:48:33;;;;;;;24.70;8.05;;;20.40;99.90;;;;;;5096521;28;20044;-60
2021/11/06 07:51:01;;;;;;;15.45;5.80;;;20.60;99.90;;;;;;5096547;28;20032;-60
2021/11/06 07:53:28;;;;;;;15.07;6.72;;;20.70;99.90;;;;;;5096485;28;20497;-60
2021/11/06 07:55:56;;;;;;;11.70;6.57;;;20.80;99.90;;;;;;5079040;28;20081;-60
2021/11/06 07:58:24;;;;;;;13.10;6.40;;;20.90;99.90;;;;;;5079621;28;20142;-60
2021/11/06 08:00:52;;;;;;;20.52;8.10;;;20.80;99.90;;;;;;5096552;28;20051;-60
2021/11/06 08:03:20;;;;;;;20.15;8.27;;;20.80;99.90;;;;;;5079569;28;20485;-60
2021/11/06 08:05:47;;;;;;;21.95;6.10;;;20.80;99.90;;;;;;5096377;28;20489;-60
2021/11/06 08:08:15;;;;;;;11.43;6.60;;;20.80;99.90;;;;;;5096080;28;20051;-60
2021/11/06 08:10:42;;;;;;;15.02;6.13;;;20.80;99.90;;;;;;5096214;28;20067;-60
2021/11/06 08:13:12;;;;;;;11.00;6.35;;;20.80;99.90;;;;;;5079357;28;20043;-61
2021/11/06 08:15:39;;;;;;;16.42;7.88;;;20.70;99.90;;;;;;5096414;28;20130;-60
2021/11/06 08:18:07;;;;;;;14.23;6.80;;;20.80;99.90;;;;;;5096056;28;20036;-60
2021/11/06 08:20:35;;;;;;;24.30;7.95;;;20.80;99.90;;;;;;5096168;28;20101;-60
2021/11/06 08:23:03;;;;;;;16.02;6.55;;;20.80;99.90;;;;;;5096013;28;20428;-61
2021/11/06 08:25:31;;;;;;;19.27;6.63;;;20.80;99.90;;;;;;5096443;28;20036;-60
2021/11/06 08:27:58;;;;;;;13.13;6.57;;;20.80;99.90;;;;;;5096144;28;20044;-60
2021/11/06 08:30:27;;;;;;;16.77;7.30;;;20.90;99.90;;;;;;5095873;28;20079;-60
2021/11/06 08:32:57;;;;;;;11.30;6.10;;;20.90;99.90;;;;;;5096045;28;20063;-60
2021/11/06 08:35:27;;;;;;;14.48;6.38;;;20.90;99.90;;;;;;5095872;28;20074;-60
2021/11/06 08:38:00;;;;;;;18.65;7.18;;;21.00;99.90;;;;;;5095690;28;20569;-60
2021/11/06 08:40:28;;;;;;;15.45;6.57;;;21.00;99.90;;;;;;5079202;28;20506;-60
2021/11/06 08:42:56;;;;;;;14.27;6.65;;;21.00;99.90;;;;;;5078732;28;20075;-60
2021/11/06 08:45:24;;;;;;;16.40;6.45;;;21.00;99.90;;;;;;5098205;28;20083;-60
2021/11/06 08:47:52;;;;;;;12.80;6.50;;;21.10;99.90;;;;;;5100006;28;20062;-60
2021/11/06 08:50:23;;;;;;;13.07;6.10;;;21.10;99.90;;;;;;5099776;28;20052;-60
2021/11/06 08:52:52;;;;;;;17.63;7.43;;;21.00;99.90;;;;;;5100282;28;20558;-60
2021/11/06 08:55:21;;;;;;;18.70;6.43;;;21.00;99.90;;;;;;5099910;28;20054;-60
2021/11/06 08:57:49;;;;;;;23.10;7.70;;;21.00;99.90;;;;;;5083066;28;20043;-60
2021/11/06 09:00:26;;;;;;;16.83;6.43;;;21.00;99.90;;;;;;5099800;28;20071;-60
2021/11/06 09:02:54;;;;;;;24.00;7.35;;;21.00;99.90;;;;;;5117550;28;20036;-60
2021/11/06 09:05:22;;;;;;;21.35;8.52;;;20.90;99.90;;;;;;5099898;28;20077;-60
2021/11/06 09:07:50;;;;;;;17.50;7.65;;;21.00;99.90;;;;;;5099798;28;20039;-60
2021/11/06 09:10:20;;;;;;;13.68;7.82;;;20.90;99.90;;;;;;5099445;28;20075;-60
2021/11/06 09:12:49;;;;;;;19.20;8.32;;;21.00;99.90;;;;;;5117640;28;20051;-60
2021/11/06 09:15:17;;;;;;;16.77;7.05;;;21.00;99.90;;;;;;5099469;28;20052;-61
2021/11/06 09:17:45;;;;;;;12.73;8.02;;;20.90;99.90;;;;;;5082471;28;20042;-60
2021/11/06 09:20:13;;;;;;;15.35;8.90;;;20.90;99.90;;;;;;5082452;28;20047;-61
2021/11/06 09:22:41;;;;;;;25.27;7.68;;;20.90;99.90;;;;;;5099432;28;20044;-60
2021/11/06 09:25:09;;;;;;;21.00;8.85;;;21.00;99.90;;;;;;5099107;28;20154;-61
2021/11/06 09:27:37;;;;;;;18.20;7.78;;;21.00;99.90;;;;;;5099138;28;20043;-60
2021/11/06 09:30:08;;;;;;;22.30;7.57;;;20.90;99.90;;;;;;5098950;28;20039;-61
2021/11/06 09:32:40;;;;;;;14.10;7.60;;;21.10;99.90;;;;;;5117524;28;20104;-60
2021/11/06 09:35:10;;;;;;;14.32;7.20;;;21.10;99.90;;;;;;5117235;28;20359;-61
2021/11/06 09:37:37;;;;;;;16.52;8.23;;;21.20;99.90;;;;;;5098934;28;20040;-60
2021/11/06 09:40:08;;;;;;;20.70;7.80;;;21.20;99.90;;;;;;5081983;28;20051;-61
2021/11/06 09:42:39;;;;;;;21.30;8.60;;;21.30;99.90;;;;;;5099091;28;20032;-61
2021/11/06 09:45:09;;;;;;;21.42;9.02;;;21.40;99.90;;;;;;5098516;28;20083;-60
2021/11/06 09:47:42;;;;;;;17.92;6.78;;;21.60;99.90;;;;;;5099131;28;20097;-60
2021/11/06 09:50:21;;;;;;;15.75;6.40;;;21.80;99.90;;;;;;5098955;28;20078;-61
2021/11/06 09:52:51;;;;;;;15.85;6.85;;;22.10;99.90;;;;;;5116790;28;20104;-61
2021/11/06 09:55:21;;;;;;;16.45;7.45;;;22.20;99.90;;;;;;5116606;28;20126;-61
2021/11/06 09:57:50;;;;;;;14.48;6.00;;;22.40;99.90;;;;;;5115833;28;20040;-61
2021/11/06 10:00:19;;;;;;;16.27;7.05;;;22.50;99.90;;;;;;5116662;28;20105;-60
2021/11/06 10:02:54;;;;;;;13.07;6.85;;;22.60;99.90;;;;;;5082021;28;20055;-60
2021/11/06 10:05:48;;;;;;;23.67;8.25;;;22.50;99.90;;;;;;5098633;28;20054;-60
2021/11/06 10:08:21;;;;;;;16.35;6.55;;;22.40;99.90;;;;;;5098774;28;20052;-61
2021/11/06 10:10:52;;;;;;;15.60;7.28;;;22.30;99.90;;;;;;5081422;28;20374;-60
2021/11/06 10:13:20;;;;;;;14.32;8.20;;;22.10;99.90;;;;;;5116429;28;20102;-60
2021/11/06 10:15:51;;;;;;;17.10;7.22;;;21.90;99.90;;;;;;5081410;28;20092;-60
2021/11/06 10:18:22;;;;;;;19.58;8.40;;;21.80;99.90;;;;;;5098380;28;20039;-61
2021/11/06 10:21:07;;;;;;;19.73;7.78;;;21.80;99.90;;;;;;5081353;28;20510;-60
2021/11/06 10:23:43;;;;;;;20.10;7.03;;;21.70;99.90;;;;;;5098314;28;20114;-60
2021/11/06 10:26:19;;;;;;;19.38;7.07;;;21.80;99.90;;;;;;5098251;28;20039;-61
2021/11/06 10:29:06;;;;;;;18.20;8.05;;;21.70;99.90;;;;;;5116109;28;20075;-60
2021/11/06 10:31:58;;;;;;;16.20;7.85;;;21.60;99.90;;;;;;5116139;28;20075;-60
2021/11/06 10:34:33;;;;;;;18.48;8.73;;;21.50;99.90;;;;;;5069715;28;20056;-60
2021/11/06 10:37:05;;;;;;;25.35;8.10;;;21.50;99.90;;;;;;5080887;28;20058;-61
2021/11/06 10:39:33;;;;;;;26.27;9.10;;;21.50;99.90;;;;;;5115920;28;20043;-60
2021/11/06 10:42:13;;;;;;;19.63;8.20;;;21.60;99.90;;;;;;5098032;28;20047;-60
2021/11/06 10:44:42;;;;;;;16.05;6.90;;;21.70;99.90;;;;;;5115839;28;20138;-60
2021/11/06 10:47:13;;;;;;;39.30;8.15;;;21.70;99.90;;;;;;5064305;28;20047;-61
2021/11/06 10:49:48;;;;;;;14.20;8.05;;;21.80;99.90;;;;;;5080624;28;20040;-61
2021/11/06 10:52:19;;;;;;;23.65;9.48;;;21.80;99.90;;;;;;5115633;28;20043;-61
2021/11/06 10:55:07;;;;;;;19.00;8.40;;;21.80;99.90;;;;;;5097507;28;20048;-61
2021/11/06 10:57:36;;;;;;;32.67;8.75;;;21.70;99.90;;;;;;5115498;28;20032;-60
2021/11/06 11:00:18;;;;;;;22.30;9.57;;;21.70;99.90;;;;;;5080487;28;20062;-62
2021/11/06 11:02:46;;;;;;;16.15;8.55;;;21.70;99.90;;;;;;5114988;28;20126;-60
2021/11/06 11:05:35;;;;;;;16.52;6.93;;;21.80;99.90;;;;;;5097467;28;20043;-61
2021/11/06 11:08:07;;;;;;;20.20;8.80;;;21.80;99.90;;;;;;5079128;28;20054;-61
2021/11/06 11:10:39;;;;;;;22.02;9.43;;;21.80;99.90;;;;;;5080340;28;20079;-61
2021/11/06 11:13:19;;;;;;;16.50;8.40;;;21.80;99.90;;;;;;5096978;28;20052;-61
2021/11/06 11:15:50;;;;;;;19.02;9.73;;;21.70;99.90;;;;;;5080081;28;20044;-61
2021/11/06 11:18:38;;;;;;;19.30;8.93;;;21.70;99.90;;;;;;5097111;28;20049;-60
2021/11/06 11:21:14;;;;;;;18.85;7.78;;;21.70;99.90;;;;;;5063260;28;20043;-61
2021/11/06 11:23:47;;;;;;;15.88;7.63;;;21.80;99.90;;;;;;5114801;28;20035;-61
2021/11/06 11:26:17;;;;;;;13.15;7.70;;;21.80;99.90;;;;;;5073215;28;20035;-61
2021/11/06 11:28:46;;;;;;;23.83;9.02;;;21.80;99.90;;;;;;5101728;28;20042;-60
2021/11/06 11:31:14;;;;;;;15.25;7.95;;;21.90;99.90;;;;;;5087928;28;20436;-61
2021/11/06 11:33:44;;;;;;;17.08;8.10;;;21.90;99.90;;;;;;5075923;28;20054;-60
2021/11/06 11:36:16;;;;;;;19.52;9.65;;;21.90;99.90;;;;;;5070329;28;20058;-60
2021/11/06 11:38:44;;;;;;;21.02;7.22;;;21.90;99.90;;;;;;5083166;28;20040;-61
2021/11/06 11:41:39;;;;;;;22.35;7.43;;;21.80;99.90;;;;;;5096214;28;20085;-61
2021/11/06 11:44:34;;;;;;;22.67;9.30;;;21.80;99.90;;;;;;5114151;28;20051;-60
2021/11/06 11:47:23;;;;;;;16.48;7.20;;;21.80;99.90;;;;;;5096724;28;20420;-63
2021/11/06 11:49:54;;;;;;;23.63;8.48;;;21.80;99.90;;;;;;5095204;28;20040;-61
2021/11/06 11:52:29;;;;;;;17.45;7.53;;;21.80;99.90;;;;;;5112993;28;20035;-61
2021/11/06 11:55:05;;;;;;;20.20;7.43;;;21.80;99.90;;;;;;5077721;28;20086;-60
2021/11/06 11:57:36;;;;;;;22.27;8.35;;;21.80;99.90;;;;;;5095045;28;20054;-60
2021/11/06 12:00:19;;;;;;;17.40;6.68;;;21.90;99.90;;;;;;5077913;28;20051;-62
2021/11/06 12:03:03;;;;;;;17.08;8.13;;;21.80;99.90;;;;;;5078165;28;20490;-60
2021/11/06 12:05:35;;;;;;;16.83;6.88;;;21.80;99.90;;;;;;5077855;28;20073;-61
2021/11/06 12:08:10;;;;;;;20.48;6.05;;;21.80;99.90;;;;;;5078254;28;20047;-61
2021/11/06 12:11:00;;;;;;;13.52;6.60;;;21.70;99.90;;;;;;5094296;28;20128;-61
2021/11/06 12:13:31;;;;;;;20.08;7.80;;;21.70;99.90;;;;;;5094264;28;20049;-61
2021/11/06 12:16:07;;;;;;;15.90;6.75;;;21.80;99.90;;;;;;5078103;28;20100;-60
2021/11/06 12:18:37;;;;;;;;;;;21.80;99.90;;;;;;5113450;28;20086;-60
2021/11/06 12:21:18;;;;;;;13.20;6.57;;;21.80;99.90;;;;;;5077701;28;19931;-61
2021/11/06 12:23:50;;;;;;;14.05;6.43;;;21.70;99.90;;;;;;5112284;28;20043;-61
2021/11/06 12:26:28;;;;;;;16.42;6.68;;;21.70;99.90;;;;;;5077552;28;20047;-60
2021/11/06 12:29:17;;;;;;;15.75;6.93;;;21.70;99.90;;;;;;5077548;28;20044;-60
2021/11/06 12:31:48;;;;;;;13.18;7.18;;;21.70;99.90;;;;;;5062142;28;20051;-60
2021/11/06 12:34:47;;;;;;;14.48;6.90;;;21.60;99.90;;;;;;5112495;28;20492;-60
2021/11/06 12:37:37;;;;;;;16.25;6.82;;;21.60;99.90;;;;;;5094262;28;20440;-60
2021/11/06 12:40:14;;;;;;;12.20;5.68;;;21.50;99.90;;;;;;5112448;28;20032;-61
2021/11/06 12:42:43;;;;;;;19.27;6.22;;;21.50;99.90;;;;;;5094152;28;20040;-61
2021/11/06 12:45:13;;;;;;;18.67;8.85;;;21.50;99.90;;;;;;5093630;28;20134;-61
2021/11/06 12:48:14;;;;;;;16.10;7.03;;;21.50;99.90;;;;;;5061159;28;20165;-60
2021/11/06 12:51:03;;;;;;;21.33;7.68;;;21.50;99.90;;;;;;5094184;28;20085;-60